Time,TemperatureF,DewpointF,PressureIn,WindDirection,WindDirectionDegrees,WindSpeedMPH,WindSpeedGustMPH,Humidity,HourlyPrecipIn,Conditions,Clouds,dailyrainin,SoftwareType,DateUTC
2013-02-17 00:02:00,27.0,15.0,29.88,WNW,298,6.0,-999.0,60,-99.99,,,-99.99,,2013-02-17 05:02:00,
2013-02-17 00:12:00,27.0,15.0,29.88,WSW,253,5.0,-999.0,60,-99.99,,,-99.99,,2013-02-17 05:12:00,
2013-02-17 00:22:00,27.0,15.0,29.88,WSW,253,5.0,-999.0,60,-99.99,,,-99.99,,2013-02-17 05:22:00,
2013-02-17 00:33:00,27.0,15.0,29.88,NW,308,6.0,-999.0,60,-99.99,,,-99.99,,2013-02-17 05:33:00,
2013-02-17 00:42:00,27.0,15.0,29.88,NW,308,6.0,-999.0,60,-99.99,,,-99.99,,2013-02-17 05:42:00,
2013-02-17 00:52:00,27.0,15.0,29.88,NW,326,4.0,-999.0,60,-99.99,,,-99.99,,2013-02-17 05:52:00,
2013-02-17 01:02:00,26.0,14.0,29.88,NNW,343,4.0,-999.0,61,-99.99,,,-99.99,,2013-02-17 06:02:00,
2013-02-17 01:11:00,26.0,14.0,29.88,NNW,343,4.0,-999.0,61,-99.99,,,-99.99,,2013-02-17 06:11:00,
2013-02-17 01:21:00,26.0,14.0,29.88,WNW,291,2.0,-999.0,61,-99.99,,,-99.99,,2013-02-17 06:21:00,
2013-02-17 01:32:00,26.0,15.0,29.88,WSW,253,2.0,-999.0,62,-99.99,,,-99.99,,2013-02-17 06:32:00,
2013-02-17 01:42:00,26.0,15.0,29.88,WSW,253,2.0,-999.0,62,-99.99,,,-99.99,,2013-02-17 06:42:00,
2013-02-17 01:52:00,26.0,15.0,29.88,NNW,337,3.0,-999.0,62,-99.99,,,-99.99,,2013-02-17 06:52:00,
2013-02-17 02:01:00,25.0,14.0,29.88,West,278,4.0,-999.0,62,-99.99,,,-99.99,,2013-02-17 07:01:00,
2013-02-17 02:11:00,25.0,14.0,29.88,WSW,237,3.0,-999.0,63,-99.99,,,-99.99,,2013-02-17 07:11:00,
2013-02-17 02:21:00,25.0,14.0,29.88,WSW,237,3.0,-999.0,63,-99.99,,,-99.99,,2013-02-17 07:21:00,
2013-02-17 02:32:00,25.0,14.0,29.88,NW,319,4.0,-999.0,63,-99.99,,,-99.99,,2013-02-17 07:32:00,
2013-02-17 02:42:00,25.0,14.0,29.88,NW,319,4.0,-999.0,63,-99.99,,,-99.99,,2013-02-17 07:42:00,
2013-02-17 02:52:00,25.0,14.0,29.89,West,278,4.0,-999.0,63,-99.99,,,-99.99,,2013-02-17 07:52:00,
2013-02-17 03:01:00,24.0,13.0,29.89,WNW,285,2.0,-999.0,63,-99.99,,,-99.99,,2013-02-17 08:01:00,
2013-02-17 03:11:00,24.0,13.0,29.89,WNW,285,2.0,-999.0,63,-99.99,,,-99.99,,2013-02-17 08:11:00,
2013-02-17 03:21:00,24.0,13.0,29.89,WNW,292,3.0,-999.0,63,-99.99,,,-99.99,,2013-02-17 08:21:00,
2013-02-17 03:32:00,24.0,13.0,29.89,NW,313,1.0,-999.0,63,-99.99,,,-99.99,,2013-02-17 08:32:00,
2013-02-17 03:42:00,24.0,13.0,29.89,NW,313,1.0,-999.0,63,-99.99,,,-99.99,,2013-02-17 08:42:00,
2013-02-17 03:52:00,24.0,13.0,29.88,NW,306,1.0,-999.0,63,-99.99,,,-99.99,,2013-02-17 08:52:00,
2013-02-17 04:02:00,23.0,12.0,29.88,WNW,301,1.0,-999.0,62,-99.99,,,-99.99,,2013-02-17 09:02:00,
2013-02-17 04:11:00,23.0,12.0,29.88,WNW,301,1.0,-999.0,62,-99.99,,,-99.99,,2013-02-17 09:11:00,
2013-02-17 04:21:00,23.0,11.0,29.88,West,261,1.0,-999.0,60,-99.99,,,-99.99,,2013-02-17 09:21:00,
2013-02-17 04:31:00,23.0,12.0,29.89,WNW,288,0.0,-999.0,62,-99.99,,,-99.99,,2013-02-17 09:31:00,
2013-02-17 04:42:00,23.0,12.0,29.89,WNW,288,0.0,-999.0,62,-99.99,,,-99.99,,2013-02-17 09:42:00,
2013-02-17 04:52:00,22.0,11.0,29.89,NW,306,0.0,-999.0,63,-99.99,,,-99.99,,2013-02-17 09:52:00,
2013-02-17 05:01:00,22.0,12.0,29.89,NW,318,0.0,-999.0,64,-99.99,,,-99.99,,2013-02-17 10:01:00,
2013-02-17 05:11:00,22.0,12.0,29.89,NW,318,0.0,-999.0,64,-99.99,,,-99.99,,2013-02-17 10:11:00,
2013-02-17 05:21:00,22.0,11.0,29.89,WNW,301,0.0,-999.0,63,-99.99,,,-99.99,,2013-02-17 10:21:00,
2013-02-17 05:32:00,22.0,11.0,29.90,WSW,256,1.0,-999.0,62,-99.99,,,-99.99,,2013-02-17 10:32:00,
2013-02-17 05:42:00,22.0,11.0,29.90,WSW,256,1.0,-999.0,62,-99.99,,,-99.99,,2013-02-17 10:42:00,
2013-02-17 05:52:00,22.0,10.0,29.90,WSW,240,2.0,-999.0,59,-99.99,,,-99.99,,2013-02-17 10:52:00,
2013-02-17 06:01:00,22.0,9.0,29.90,West,281,2.0,-999.0,57,-99.99,,,-99.99,,2013-02-17 11:01:00,
2013-02-17 06:11:00,22.0,9.0,29.90,West,281,2.0,-999.0,57,-99.99,,,-99.99,,2013-02-17 11:11:00,
2013-02-17 06:21:00,22.0,10.0,29.90,West,275,2.0,-999.0,58,-99.99,,,-99.99,,2013-02-17 11:21:00,
2013-02-17 06:32:00,22.0,10.0,29.91,WNW,298,3.0,-999.0,58,-99.99,,,-99.99,,2013-02-17 11:32:00,
2013-02-17 06:42:00,22.0,10.0,29.91,WNW,298,3.0,-999.0,58,-99.99,,,-99.99,,2013-02-17 11:42:00,
2013-02-17 06:52:00,22.0,9.0,29.91,North,4,3.0,-999.0,57,-99.99,,,-99.99,,2013-02-17 11:52:00,
2013-02-17 07:03:00,22.0,9.0,29.91,WSW,254,3.0,-999.0,56,-99.99,,,-99.99,,2013-02-17 12:03:00,
2013-02-17 07:11:00,22.0,9.0,29.91,WSW,254,3.0,-999.0,56,-99.99,,,-99.99,,2013-02-17 12:11:00,
2013-02-17 07:22:00,22.0,8.0,29.91,WNW,289,5.0,-999.0,53,-99.99,,,-99.99,,2013-02-17 12:22:00,
2013-02-17 07:32:00,22.0,8.0,29.92,WSW,258,5.0,-999.0,53,-99.99,,,-99.99,,2013-02-17 12:32:00,
2013-02-17 07:42:00,22.0,8.0,29.92,WSW,258,5.0,-999.0,53,-99.99,,,-99.99,,2013-02-17 12:42:00,
2013-02-17 07:52:00,22.0,8.0,29.93,West,278,3.0,-999.0,54,-99.99,,,-99.99,,2013-02-17 12:52:00,
2013-02-17 08:02:00,22.0,8.0,29.93,WSW,253,4.0,-999.0,55,-99.99,,,-99.99,,2013-02-17 13:02:00,
2013-02-17 08:12:00,22.0,8.0,29.93,WSW,253,4.0,-999.0,55,-99.99,,,-99.99,,2013-02-17 13:12:00,
2013-02-17 08:22:00,22.0,9.0,29.94,WNW,301,6.0,-999.0,56,-99.99,,,-99.99,,2013-02-17 13:22:00,
2013-02-17 08:32:00,22.0,9.0,29.94,NNW,344,5.0,-999.0,56,-99.99,,,-99.99,,2013-02-17 13:32:00,
2013-02-17 08:42:00,22.0,9.0,29.94,NNW,344,5.0,-999.0,56,-99.99,,,-99.99,,2013-02-17 13:42:00,
2013-02-17 08:52:00,23.0,9.0,29.95,NW,304,9.0,-999.0,55,-99.99,,,-99.99,,2013-02-17 13:52:00,
2013-02-17 09:01:00,24.0,10.0,29.95,WNW,292,9.0,-999.0,55,-99.99,,,-99.99,,2013-02-17 14:01:00,
2013-02-17 09:11:00,24.0,10.0,29.95,WNW,292,9.0,-999.0,55,-99.99,,,-99.99,,2013-02-17 14:11:00,
2013-02-17 09:22:00,24.0,9.0,29.95,West,261,11.0,-999.0,53,-99.99,,,-99.99,,2013-02-17 14:22:00,
2013-02-17 09:32:00,24.0,10.0,29.96,NW,325,9.0,-999.0,54,-99.99,,,-99.99,,2013-02-17 14:32:00,
2013-02-17 09:42:00,24.0,10.0,29.96,NW,325,9.0,-999.0,54,-99.99,,,-99.99,,2013-02-17 14:42:00,
2013-02-17 09:52:00,25.0,10.0,29.96,WSW,248,11.0,-999.0,52,-99.99,,,-99.99,,2013-02-17 14:52:00,
2013-02-17 10:02:00,25.0,9.0,29.96,NW,325,12.0,-999.0,50,-99.99,,,-99.99,,2013-02-17 15:02:00,
2013-02-17 10:11:00,25.0,9.0,29.96,NW,325,12.0,-999.0,50,-99.99,,,-99.99,,2013-02-17 15:11:00,
2013-02-17 10:21:00,26.0,9.0,29.97,WNW,294,10.0,-999.0,48,-99.99,,,-99.99,,2013-02-17 15:21:00,
2013-02-17 10:32:00,26.0,8.0,29.97,NNW,330,12.0,-999.0,45,-99.99,,,-99.99,,2013-02-17 15:32:00,
2013-02-17 10:42:00,26.0,8.0,29.97,NNW,330,12.0,-999.0,45,-99.99,,,-99.99,,2013-02-17 15:42:00,
2013-02-17 10:52:00,27.0,9.0,29.97,WNW,294,10.0,-999.0,45,-99.99,,,-99.99,,2013-02-17 15:52:00,
2013-02-17 11:01:00,27.0,11.0,29.97,West,263,12.0,-999.0,51,-99.99,,,-99.99,,2013-02-17 16:01:00,
2013-02-17 11:12:00,27.0,11.0,29.97,West,263,12.0,-999.0,51,-99.99,,,-99.99,,2013-02-17 16:12:00,
2013-02-17 11:21:00,27.0,14.0,29.98,West,271,10.0,-999.0,57,-99.99,,,-99.99,,2013-02-17 16:21:00,
2013-02-17 11:32:00,27.0,12.0,29.98,SW,222,9.0,-999.0,53,-99.99,,,-99.99,,2013-02-17 16:32:00,
2013-02-17 11:42:00,27.0,12.0,29.98,SW,222,9.0,-999.0,53,-99.99,,,-99.99,,2013-02-17 16:42:00,
2013-02-17 11:52:00,28.0,13.0,29.98,North,349,11.0,-999.0,52,-99.99,,,-99.99,,2013-02-17 16:52:00,
2013-02-17 12:02:00,27.0,13.0,29.98,West,267,10.0,-999.0,54,-99.99,,,-99.99,,2013-02-17 17:02:00,
2013-02-17 12:11:00,27.0,13.0,29.98,West,267,10.0,-999.0,54,-99.99,,,-99.99,,2013-02-17 17:11:00,
2013-02-17 12:21:00,27.0,11.0,29.98,NW,306,9.0,-999.0,51,-99.99,,,-99.99,,2013-02-17 17:21:00,
2013-02-17 12:32:00,26.0,9.0,29.98,WSW,256,10.0,-999.0,49,-99.99,,,-99.99,,2013-02-17 17:32:00,
2013-02-17 12:42:00,26.0,9.0,29.98,WSW,256,10.0,-999.0,49,-99.99,,,-99.99,,2013-02-17 17:42:00,
2013-02-17 12:52:00,26.0,12.0,29.98,NW,316,10.0,-999.0,55,-99.99,,,-99.99,,2013-02-17 17:52:00,
2013-02-17 13:02:00,28.0,11.0,29.98,West,272,7.0,-999.0,49,-99.99,,,-99.99,,2013-02-17 18:02:00,
2013-02-17 13:11:00,28.0,11.0,29.98,West,272,7.0,-999.0,49,-99.99,,,-99.99,,2013-02-17 18:11:00,
2013-02-17 13:22:00,28.0,9.0,29.98,WSW,248,10.0,-999.0,44,-99.99,,,-99.99,,2013-02-17 18:22:00,
2013-02-17 13:33:00,28.0,7.0,29.98,NNW,339,10.0,-999.0,41,-99.99,,,-99.99,,2013-02-17 18:33:00,
2013-02-17 13:42:00,28.0,7.0,29.98,NNW,339,10.0,-999.0,41,-99.99,,,-99.99,,2013-02-17 18:42:00,
2013-02-17 13:52:00,28.0,6.0,29.98,NW,323,11.0,-999.0,38,-99.99,,,-99.99,,2013-02-17 18:52:00,
2013-02-17 14:01:00,28.0,6.0,29.98,NW,323,11.0,-999.0,38,-99.99,,,-99.99,,2013-02-17 19:01:00,
2013-02-17 14:11:00,28.0,6.0,29.98,NW,323,11.0,-999.0,38,-99.99,,,-99.99,,2013-02-17 19:11:00,
2013-02-17 14:22:00,27.0,12.0,29.99,NW,325,11.0,-999.0,53,-99.99,,,-99.99,,2013-02-17 19:22:00,
2013-02-17 14:32:00,26.0,12.0,30.00,NW,306,8.0,-999.0,56,-99.99,,,-99.99,,2013-02-17 19:32:00,
2013-02-17 14:42:00,26.0,12.0,30.00,NW,306,8.0,-999.0,56,-99.99,,,-99.99,,2013-02-17 19:42:00,
2013-02-17 14:52:00,25.0,15.0,30.00,WNW,294,10.0,-999.0,65,-99.99,,,-99.99,,2013-02-17 19:52:00,
2013-02-17 15:02:00,24.0,17.0,30.01,NW,320,8.0,-999.0,75,-99.99,,,-99.99,,2013-02-17 20:02:00,
2013-02-17 15:11:00,24.0,17.0,30.01,NW,320,8.0,-999.0,75,-99.99,,,-99.99,,2013-02-17 20:11:00,
2013-02-17 15:22:00,26.0,16.0,30.02,West,268,8.0,-999.0,65,-99.99,,,-99.99,,2013-02-17 20:22:00,
2013-02-17 15:32:00,26.0,14.0,30.02,West,272,10.0,-999.0,60,-99.99,,,-99.99,,2013-02-17 20:32:00,
2013-02-17 15:42:00,26.0,14.0,30.02,West,272,10.0,-999.0,60,-99.99,,,-99.99,,2013-02-17 20:42:00,
2013-02-17 15:52:00,25.0,14.0,30.03,WSW,256,11.0,-999.0,63,-99.99,,,-99.99,,2013-02-17 20:52:00,
2013-02-17 16:02:00,25.0,12.0,30.03,West,272,10.0,-999.0,56,-99.99,,,-99.99,,2013-02-17 21:02:00,
2013-02-17 16:11:00,25.0,12.0,30.03,West,272,10.0,-999.0,56,-99.99,,,-99.99,,2013-02-17 21:11:00,
2013-02-17 16:21:00,26.0,9.0,30.03,WSW,258,13.0,-999.0,49,-99.99,,,-99.99,,2013-02-17 21:21:00,
2013-02-17 16:32:00,27.0,9.0,30.02,NW,318,11.0,-999.0,45,-99.99,,,-99.99,,2013-02-17 21:32:00,
2013-02-17 16:42:00,27.0,9.0,30.02,NW,318,11.0,-999.0,45,-99.99,,,-99.99,,2013-02-17 21:42:00,
2013-02-17 16:52:00,26.0,12.0,30.03,NNW,342,9.0,-999.0,56,-99.99,,,-99.99,,2013-02-17 21:52:00,
2013-02-17 17:01:00,26.0,10.0,30.03,WNW,284,9.0,-999.0,51,-99.99,,,-99.99,,2013-02-17 22:01:00,
2013-02-17 17:12:00,26.0,10.0,30.03,WNW,284,9.0,-999.0,51,-99.99,,,-99.99,,2013-02-17 22:12:00,
2013-02-17 17:22:00,25.0,11.0,30.05,WNW,285,14.0,-999.0,54,-99.99,,,-99.99,,2013-02-17 22:22:00,
2013-02-17 17:32:00,24.0,11.0,30.06,WNW,282,8.0,-999.0,57,-99.99,,,-99.99,,2013-02-17 22:32:00,
2013-02-17 17:42:00,24.0,11.0,30.06,WNW,282,8.0,-999.0,57,-99.99,,,-99.99,,2013-02-17 22:42:00,
2013-02-17 17:52:00,24.0,9.0,30.07,WSW,254,8.0,-999.0,53,-99.99,,,-99.99,,2013-02-17 22:52:00,
2013-02-17 18:02:00,24.0,9.0,30.07,NW,306,10.0,-999.0,52,-99.99,,,-99.99,,2013-02-17 23:02:00,
2013-02-17 18:11:00,24.0,9.0,30.07,NW,306,10.0,-999.0,52,-99.99,,,-99.99,,2013-02-17 23:11:00,
2013-02-17 18:21:00,23.0,11.0,30.09,NW,313,7.0,-999.0,59,-99.99,,,-99.99,,2013-02-17 23:21:00,
2013-02-17 18:32:00,23.0,10.0,30.10,WNW,298,7.0,-999.0,57,-99.99,,,-99.99,,2013-02-17 23:32:00,
2013-02-17 18:42:00,23.0,10.0,30.10,WNW,298,7.0,-999.0,57,-99.99,,,-99.99,,2013-02-17 23:42:00,
2013-02-17 18:52:00,23.0,7.0,30.11,WNW,301,10.0,-999.0,50,-99.99,,,-99.99,,2013-02-17 23:52:00,
2013-02-17 19:01:00,23.0,8.0,30.11,WNW,287,12.0,-999.0,52,-99.99,,,-99.99,,2013-02-18 00:01:00,
2013-02-17 19:11:00,23.0,8.0,30.11,WNW,287,12.0,-999.0,52,-99.99,,,-99.99,,2013-02-18 00:11:00,
2013-02-17 19:22:00,23.0,8.0,30.12,NW,316,9.0,-999.0,51,-99.99,,,-99.99,,2013-02-18 00:22:00,
2013-02-17 19:32:00,23.0,7.0,30.12,WNW,284,9.0,-999.0,50,-99.99,,,-99.99,,2013-02-18 00:32:00,
2013-02-17 19:41:00,23.0,7.0,30.12,WNW,284,9.0,-999.0,50,-99.99,,,-99.99,,2013-02-18 00:41:00,
2013-02-17 19:52:00,23.0,8.0,30.14,NNW,336,10.0,-999.0,51,-99.99,,,-99.99,,2013-02-18 00:52:00,
2013-02-17 20:01:00,23.0,8.0,30.15,West,263,6.0,-999.0,52,-99.99,,,-99.99,,2013-02-18 01:01:00,
2013-02-17 20:12:00,23.0,8.0,30.15,West,263,6.0,-999.0,52,-99.99,,,-99.99,,2013-02-18 01:12:00,
2013-02-17 20:21:00,22.0,6.0,30.16,NW,308,6.0,-999.0,50,-99.99,,,-99.99,,2013-02-18 01:21:00,
2013-02-17 20:32:00,22.0,7.0,30.16,WNW,289,4.0,-999.0,51,-99.99,,,-99.99,,2013-02-18 01:32:00,
2013-02-17 20:42:00,22.0,7.0,30.16,WNW,289,4.0,-999.0,51,-99.99,,,-99.99,,2013-02-18 01:42:00,
2013-02-17 20:52:00,22.0,6.0,30.16,NNW,339,6.0,-999.0,50,-99.99,,,-99.99,,2013-02-18 01:52:00,
2013-02-17 21:02:00,22.0,6.0,30.16,NNW,335,7.0,-999.0,49,-99.99,,,-99.99,,2013-02-18 02:02:00,
2013-02-17 21:11:00,22.0,6.0,30.16,NNW,335,7.0,-999.0,49,-99.99,,,-99.99,,2013-02-18 02:11:00,
2013-02-17 21:22:00,22.0,5.0,30.18,WNW,301,7.0,-999.0,48,-99.99,,,-99.99,,2013-02-18 02:22:00,
2013-02-17 21:32:00,22.0,5.0,30.19,NW,323,7.0,-999.0,48,-99.99,,,-99.99,,2013-02-18 02:32:00,
2013-02-17 21:42:00,22.0,5.0,30.19,NW,323,7.0,-999.0,48,-99.99,,,-99.99,,2013-02-18 02:42:00,
2013-02-17 21:52:00,22.0,5.0,30.19,WNW,287,8.0,-999.0,48,-99.99,,,-99.99,,2013-02-18 02:52:00,
2013-02-17 22:01:00,22.0,5.0,30.20,West,260,9.0,-999.0,48,-99.99,,,-99.99,,2013-02-18 03:01:00,
2013-02-17 22:11:00,22.0,5.0,30.20,West,260,9.0,-999.0,48,-99.99,,,-99.99,,2013-02-18 03:11:00,
2013-02-17 22:21:00,22.0,5.0,30.21,NW,305,10.0,-999.0,48,-99.99,,,-99.99,,2013-02-18 03:21:00,
2013-02-17 22:32:00,22.0,6.0,30.21,WNW,298,7.0,-999.0,49,-99.99,,,-99.99,,2013-02-18 03:32:00,
2013-02-17 22:42:00,22.0,6.0,30.21,WNW,298,7.0,-999.0,49,-99.99,,,-99.99,,2013-02-18 03:42:00,
2013-02-17 22:52:00,22.0,6.0,30.21,WNW,289,9.0,-999.0,49,-99.99,,,-99.99,,2013-02-18 03:52:00,
2013-02-17 23:01:00,22.0,6.0,30.22,NW,315,10.0,-999.0,50,-99.99,,,-99.99,,2013-02-18 04:01:00,
2013-02-17 23:11:00,22.0,6.0,30.22,NW,315,10.0,-999.0,50,-99.99,,,-99.99,,2013-02-18 04:11:00,
2013-02-17 23:21:00,22.0,7.0,30.22,WNW,294,7.0,-999.0,51,-99.99,,,-99.99,,2013-02-18 04:21:00,
2013-02-17 23:32:00,22.0,6.0,30.22,North,359,7.0,-999.0,50,-99.99,,,-99.99,,2013-02-18 04:32:00,
2013-02-17 23:42:00,22.0,6.0,30.22,North,359,7.0,-999.0,50,-99.99,,,-99.99,,2013-02-18 04:42:00,
2013-02-17 23:52:00,22.0,6.0,30.22,NNW,336,8.0,-999.0,50,-99.99,,,-99.99,,2013-02-18 04:52:00,